sensor_id;sensor_type;location;lat;lon;timestamp;P1;durP1;ratioP1;P2;durP2;ratioP2
22425;SDS011;11380;50.822;15.790;2023-06-05T00:05:03;57.60;;;50.43;;
22425;SDS011;11380;50.822;15.790;2023-06-05T00:10:13;55.00;;;49.52;;
22425;SDS011;11380;50.822;15.790;2023-06-05T00:15:21;54.53;;;49.15;;
22425;SDS011;11380;50.822;15.790;2023-06-05T00:20:28;54.63;;;49.23;;
22425;SDS011;11380;50.822;15.790;2023-06-05T00:25:35;54.70;;;49.03;;
22425;SDS011;11380;50.822;15.790;2023-06-05T00:30:42;54.50;;;49.00;;
22425;SDS011;11380;50.822;15.790;2023-06-05T00:35:49;54.37;;;49.00;;
22425;SDS011;11380;50.822;15.790;2023-06-05T00:40:57;54.27;;;48.85;;
22425;SDS011;11380;50.822;15.790;2023-06-05T00:46:04;54.40;;;49.10;;
22425;SDS011;11380;50.822;15.790;2023-06-05T00:51:11;54.07;;;48.73;;
22425;SDS011;11380;50.822;15.790;2023-06-05T00:56:20;54.17;;;48.77;;
22425;SDS011;11380;50.822;15.790;2023-06-05T01:01:27;54.67;;;49.00;;
22425;SDS011;11380;50.822;15.790;2023-06-05T01:06:34;53.87;;;48.60;;
22425;SDS011;11380;50.822;15.790;2023-06-05T01:12:05;53.53;;;48.37;;
22425;SDS011;11380;50.822;15.790;2023-06-05T01:17:33;54.23;;;48.73;;
22425;SDS011;11380;50.822;15.790;2023-06-05T01:22:40;54.15;;;48.85;;
22425;SDS011;11380;50.822;15.790;2023-06-05T01:27:58;53.57;;;48.47;;
22425;SDS011;11380;50.822;15.790;2023-06-05T01:33:17;53.40;;;48.28;;
22425;SDS011;11380;50.822;15.790;2023-06-05T01:38:35;53.63;;;48.43;;
22425;SDS011;11380;50.822;15.790;2023-06-05T01:43:43;53.37;;;48.27;;
22425;SDS011;11380;50.822;15.790;2023-06-05T01:48:52;53.47;;;48.37;;
22425;SDS011;11380;50.822;15.790;2023-06-05T01:54:00;53.67;;;48.53;;
22425;SDS011;11380;50.822;15.790;2023-06-05T01:59:10;53.17;;;48.07;;
22425;SDS011;11380;50.822;15.790;2023-06-05T02:04:17;53.10;;;48.10;;
22425;SDS011;11380;50.822;15.790;2023-06-05T02:09:25;53.70;;;48.50;;
22425;SDS011;11380;50.822;15.790;2023-06-05T02:14:32;53.17;;;48.08;;
22425;SDS011;11380;50.822;15.790;2023-06-05T02:19:43;53.47;;;48.30;;
22425;SDS011;11380;50.822;15.790;2023-06-05T02:24:51;53.03;;;48.03;;
22425;SDS011;11380;50.822;15.790;2023-06-05T02:29:58;52.90;;;47.90;;
22425;SDS011;11380;50.822;15.790;2023-06-05T02:35:05;52.93;;;47.83;;
22425;SDS011;11380;50.822;15.790;2023-06-05T02:40:15;52.97;;;47.93;;
22425;SDS011;11380;50.822;15.790;2023-06-05T02:45:22;52.83;;;47.93;;
22425;SDS011;11380;50.822;15.790;2023-06-05T02:50:30;53.20;;;48.17;;
22425;SDS011;11380;50.822;15.790;2023-06-05T02:55:37;53.93;;;48.23;;
22425;SDS011;11380;50.822;15.790;2023-06-05T03:05:52;52.10;;;47.20;;
22425;SDS011;11380;50.822;15.790;2023-06-05T03:11:00;53.70;;;48.40;;
22425;SDS011;11380;50.822;15.790;2023-06-05T03:16:10;53.05;;;47.95;;
22425;SDS011;11380;50.822;15.790;2023-06-05T03:21:17;53.33;;;48.33;;
22425;SDS011;11380;50.822;15.790;2023-06-05T03:31:30;53.80;;;48.30;;
22425;SDS011;11380;50.822;15.790;2023-06-05T03:36:37;53.00;;;48.00;;
22425;SDS011;11380;50.822;15.790;2023-06-05T03:41:44;53.28;;;48.15;;
22425;SDS011;11380;50.822;15.790;2023-06-05T03:46:52;53.52;;;48.42;;
22425;SDS011;11380;50.822;15.790;2023-06-05T03:52:00;53.70;;;48.50;;
22425;SDS011;11380;50.822;15.790;2023-06-05T03:57:07;53.27;;;48.17;;
22425;SDS011;11380;50.822;15.790;2023-06-05T04:02:15;54.00;;;48.70;;
22425;SDS011;11380;50.822;15.790;2023-06-05T04:07:23;57.13;;;49.15;;
22425;SDS011;11380;50.822;15.790;2023-06-05T04:12:30;53.73;;;48.58;;
22425;SDS011;11380;50.822;15.790;2023-06-05T04:17:37;54.37;;;49.03;;
22425;SDS011;11380;50.822;15.790;2023-06-05T04:22:44;54.67;;;49.27;;
22425;SDS011;11380;50.822;15.790;2023-06-05T04:27:52;55.20;;;49.60;;
22425;SDS011;11380;50.822;15.790;2023-06-05T04:33:01;55.83;;;49.87;;
22425;SDS011;11380;50.822;15.790;2023-06-05T04:38:10;56.47;;;50.77;;
22425;SDS011;11380;50.822;15.790;2023-06-05T04:43:16;55.70;;;50.10;;
22425;SDS011;11380;50.822;15.790;2023-06-05T04:48:23;55.12;;;49.60;;
22425;SDS011;11380;50.822;15.790;2023-06-05T04:53:32;55.90;;;50.20;;
22425;SDS011;11380;50.822;15.790;2023-06-05T04:58:39;56.20;;;50.33;;
22425;SDS011;11380;50.822;15.790;2023-06-05T05:03:46;56.10;;;50.23;;
22425;SDS011;11380;50.822;15.790;2023-06-05T05:08:54;55.90;;;50.07;;
22425;SDS011;11380;50.822;15.790;2023-06-05T05:14:01;56.30;;;50.30;;
22425;SDS011;11380;50.822;15.790;2023-06-05T05:19:10;56.78;;;50.80;;
22425;SDS011;11380;50.822;15.790;2023-06-05T05:24:17;56.60;;;50.55;;
22425;SDS011;11380;50.822;15.790;2023-06-05T05:29:25;57.30;;;51.10;;
22425;SDS011;11380;50.822;15.790;2023-06-05T05:34:33;58.60;;;51.47;;
22425;SDS011;11380;50.822;15.790;2023-06-05T05:39:40;58.60;;;52.20;;
22425;SDS011;11380;50.822;15.790;2023-06-05T05:44:47;58.62;;;52.32;;
22425;SDS011;11380;50.822;15.790;2023-06-05T05:49:54;58.83;;;51.98;;
22425;SDS011;11380;50.822;15.790;2023-06-05T06:00:07;59.07;;;52.47;;
22425;SDS011;11380;50.822;15.790;2023-06-05T06:05:17;58.60;;;52.15;;
22425;SDS011;11380;50.822;15.790;2023-06-05T06:10:25;60.80;;;52.65;;
22425;SDS011;11380;50.822;15.790;2023-06-05T06:15:32;58.28;;;51.88;;
22425;SDS011;11380;50.822;15.790;2023-06-05T06:20:41;58.90;;;52.40;;
22425;SDS011;11380;50.822;15.790;2023-06-05T06:25:48;61.33;;;52.77;;
22425;SDS011;11380;50.822;15.790;2023-06-05T06:30:56;59.83;;;52.23;;
22425;SDS011;11380;50.822;15.790;2023-06-05T06:36:02;60.73;;;52.87;;
22425;SDS011;11380;50.822;15.790;2023-06-05T06:46:16;68.22;;;55.08;;
22425;SDS011;11380;50.822;15.790;2023-06-05T06:51:22;62.07;;;53.20;;
22425;SDS011;11380;50.822;15.790;2023-06-05T06:56:29;63.83;;;53.77;;
22425;SDS011;11380;50.822;15.790;2023-06-05T07:01:36;62.70;;;53.80;;
22425;SDS011;11380;50.822;15.790;2023-06-05T07:06:49;65.00;;;54.45;;
22425;SDS011;11380;50.822;15.790;2023-06-05T07:11:56;64.23;;;54.00;;
22425;SDS011;11380;50.822;15.790;2023-06-05T07:17:05;69.30;;;56.30;;
22425;SDS011;11380;50.822;15.790;2023-06-05T07:22:14;64.25;;;54.50;;
22425;SDS011;11380;50.822;15.790;2023-06-05T07:27:20;64.58;;;53.90;;
22425;SDS011;11380;50.822;15.790;2023-06-05T07:32:28;66.62;;;53.98;;
22425;SDS011;11380;50.822;15.790;2023-06-05T07:37:35;65.93;;;54.33;;
22425;SDS011;11380;50.822;15.790;2023-06-05T07:42:43;64.87;;;53.95;;
22425;SDS011;11380;50.822;15.790;2023-06-05T07:47:50;66.20;;;54.37;;
22425;SDS011;11380;50.822;15.790;2023-06-05T07:52:56;65.40;;;53.70;;
22425;SDS011;11380;50.822;15.790;2023-06-05T07:58:03;67.97;;;54.60;;
22425;SDS011;11380;50.822;15.790;2023-06-05T08:03:10;67.90;;;54.23;;
22425;SDS011;11380;50.822;15.790;2023-06-05T08:08:18;66.40;;;54.50;;
22425;SDS011;11380;50.822;15.790;2023-06-05T08:13:25;68.15;;;54.60;;
22425;SDS011;11380;50.822;15.790;2023-06-05T08:18:32;67.43;;;54.73;;
22425;SDS011;11380;50.822;15.790;2023-06-05T08:23:41;67.30;;;54.83;;
22425;SDS011;11380;50.822;15.790;2023-06-05T08:28:48;68.87;;;55.63;;
22425;SDS011;11380;50.822;15.790;2023-06-05T08:33:55;66.50;;;54.77;;
22425;SDS011;11380;50.822;15.790;2023-06-05T08:39:02;68.20;;;55.20;;
22425;SDS011;11380;50.822;15.790;2023-06-05T08:44:13;67.78;;;55.83;;
22425;SDS011;11380;50.822;15.790;2023-06-05T08:49:22;66.65;;;55.33;;
22425;SDS011;11380;50.822;15.790;2023-06-05T08:54:37;69.80;;;55.65;;
22425;SDS011;11380;50.822;15.790;2023-06-05T08:59:45;67.17;;;55.47;;
22425;SDS011;11380;50.822;15.790;2023-06-05T09:04:53;71.00;;;56.37;;
22425;SDS011;11380;50.822;15.790;2023-06-05T09:10:02;69.00;;;55.90;;
22425;SDS011;11380;50.822;15.790;2023-06-05T09:15:20;68.73;;;55.97;;
22425;SDS011;11380;50.822;15.790;2023-06-05T09:20:33;74.10;;;56.63;;
22425;SDS011;11380;50.822;15.790;2023-06-05T09:25:48;72.53;;;56.17;;
22425;SDS011;11380;50.822;15.790;2023-06-05T09:30:56;70.77;;;57.03;;
22425;SDS011;11380;50.822;15.790;2023-06-05T09:36:07;69.07;;;56.30;;
22425;SDS011;11380;50.822;15.790;2023-06-05T09:41:17;69.40;;;56.45;;
22425;SDS011;11380;50.822;15.790;2023-06-05T09:46:25;72.35;;;56.28;;
22425;SDS011;11380;50.822;15.790;2023-06-05T09:51:32;69.27;;;56.07;;
22425;SDS011;11380;50.822;15.790;2023-06-05T09:56:40;70.40;;;56.27;;
22425;SDS011;11380;50.822;15.790;2023-06-05T10:01:51;71.43;;;56.63;;
22425;SDS011;11380;50.822;15.790;2023-06-05T10:06:59;73.90;;;56.43;;
22425;SDS011;11380;50.822;15.790;2023-06-05T10:12:07;71.23;;;56.53;;
22425;SDS011;11380;50.822;15.790;2023-06-05T10:17:14;70.92;;;56.32;;
22425;SDS011;11380;50.822;15.790;2023-06-05T10:22:22;69.60;;;56.53;;
22425;SDS011;11380;50.822;15.790;2023-06-05T10:27:40;69.87;;;56.70;;
22425;SDS011;11380;50.822;15.790;2023-06-05T10:33:07;69.83;;;56.30;;
22425;SDS011;11380;50.822;15.790;2023-06-05T10:38:50;69.70;;;55.93;;
22425;SDS011;11380;50.822;15.790;2023-06-05T10:43:59;70.07;;;56.60;;
22425;SDS011;11380;50.822;15.790;2023-06-05T10:49:13;147.37;;;60.40;;
22425;SDS011;11380;50.822;15.790;2023-06-05T10:59:43;73.57;;;56.55;;
22425;SDS011;11380;50.822;15.790;2023-06-05T11:10:09;68.95;;;56.28;;
22425;SDS011;11380;50.822;15.790;2023-06-05T11:25:55;68.20;;;55.77;;
22425;SDS011;11380;50.822;15.790;2023-06-05T11:31:04;70.63;;;56.13;;
22425;SDS011;11380;50.822;15.790;2023-06-05T11:36:11;67.93;;;55.63;;
22425;SDS011;11380;50.822;15.790;2023-06-05T11:41:19;73.40;;;55.52;;
22425;SDS011;11380;50.822;15.790;2023-06-05T11:46:41;68.37;;;56.13;;
22425;SDS011;11380;50.822;15.790;2023-06-05T11:51:49;68.03;;;55.80;;
22425;SDS011;11380;50.822;15.790;2023-06-05T11:56:57;67.53;;;55.23;;
22425;SDS011;11380;50.822;15.790;2023-06-05T12:02:10;70.30;;;55.96;;
22425;SDS011;11380;50.822;15.790;2023-06-05T12:07:26;70.30;;;56.53;;
22425;SDS011;11380;50.822;15.790;2023-06-05T12:12:34;67.73;;;56.17;;
22425;SDS011;11380;50.822;15.790;2023-06-05T12:17:57;68.40;;;56.08;;
22425;SDS011;11380;50.822;15.790;2023-06-05T12:23:05;70.40;;;56.10;;
22425;SDS011;11380;50.822;15.790;2023-06-05T12:28:18;71.17;;;55.67;;
22425;SDS011;11380;50.822;15.790;2023-06-05T12:33:25;67.83;;;55.53;;
22425;SDS011;11380;50.822;15.790;2023-06-05T12:38:37;68.87;;;55.55;;
22425;SDS011;11380;50.822;15.790;2023-06-05T12:43:57;66.27;;;54.87;;
22425;SDS011;11380;50.822;15.790;2023-06-05T12:49:06;68.70;;;55.87;;
22425;SDS011;11380;50.822;15.790;2023-06-05T12:54:13;68.23;;;55.73;;
22425;SDS011;11380;50.822;15.790;2023-06-05T12:59:22;68.55;;;56.08;;
22425;SDS011;11380;50.822;15.790;2023-06-05T13:04:30;67.80;;;55.70;;
22425;SDS011;11380;50.822;15.790;2023-06-05T13:09:39;68.45;;;55.78;;
22425;SDS011;11380;50.822;15.790;2023-06-05T13:14:46;70.23;;;55.50;;
22425;SDS011;11380;50.822;15.790;2023-06-05T13:19:53;68.93;;;55.47;;
22425;SDS011;11380;50.822;15.790;2023-06-05T13:25:00;69.53;;;55.93;;
22425;SDS011;11380;50.822;15.790;2023-06-05T13:30:10;70.50;;;56.10;;
22425;SDS011;11380;50.822;15.790;2023-06-05T13:35:16;70.93;;;56.23;;
22425;SDS011;11380;50.822;15.790;2023-06-05T13:40:23;68.23;;;56.07;;
22425;SDS011;11380;50.822;15.790;2023-06-05T13:45:32;68.63;;;56.33;;
22425;SDS011;11380;50.822;15.790;2023-06-05T13:50:39;69.57;;;57.40;;
22425;SDS011;11380;50.822;15.790;2023-06-05T13:55:46;70.40;;;56.33;;
22425;SDS011;11380;50.822;15.790;2023-06-05T14:00:54;72.60;;;56.73;;
22425;SDS011;11380;50.822;15.790;2023-06-05T14:06:01;71.80;;;56.50;;
22425;SDS011;11380;50.822;15.790;2023-06-05T14:11:10;70.17;;;56.60;;
22425;SDS011;11380;50.822;15.790;2023-06-05T14:16:17;69.77;;;56.55;;
22425;SDS011;11380;50.822;15.790;2023-06-05T14:21:26;70.17;;;56.50;;
22425;SDS011;11380;50.822;15.790;2023-06-05T14:26:33;69.80;;;56.20;;
22425;SDS011;11380;50.822;15.790;2023-06-05T14:31:40;69.50;;;56.13;;
22425;SDS011;11380;50.822;15.790;2023-06-05T14:36:47;70.63;;;56.30;;
22425;SDS011;11380;50.822;15.790;2023-06-05T14:41:57;69.70;;;56.37;;
22425;SDS011;11380;50.822;15.790;2023-06-05T14:47:04;70.87;;;56.40;;
22425;SDS011;11380;50.822;15.790;2023-06-05T14:52:13;68.67;;;56.60;;
22425;SDS011;11380;50.822;15.790;2023-06-05T14:57:19;68.47;;;55.83;;
22425;SDS011;11380;50.822;15.790;2023-06-05T15:02:28;69.23;;;56.60;;
22425;SDS011;11380;50.822;15.790;2023-06-05T15:07:36;68.80;;;56.33;;
22425;SDS011;11380;50.822;15.790;2023-06-05T15:12:44;71.43;;;56.47;;
22425;SDS011;11380;50.822;15.790;2023-06-05T15:17:51;68.90;;;56.15;;
22425;SDS011;11380;50.822;15.790;2023-06-05T15:22:58;69.20;;;56.10;;
22425;SDS011;11380;50.822;15.790;2023-06-05T15:28:07;67.37;;;55.73;;
22425;SDS011;11380;50.822;15.790;2023-06-05T15:33:16;70.60;;;55.88;;
22425;SDS011;11380;50.822;15.790;2023-06-05T15:38:23;71.77;;;56.27;;
22425;SDS011;11380;50.822;15.790;2023-06-05T15:43:30;71.23;;;56.70;;
22425;SDS011;11380;50.822;15.790;2023-06-05T15:48:37;67.87;;;55.87;;
22425;SDS011;11380;50.822;15.790;2023-06-05T15:53:44;66.70;;;55.60;;
22425;SDS011;11380;50.822;15.790;2023-06-05T15:58:53;68.95;;;55.73;;
22425;SDS011;11380;50.822;15.790;2023-06-05T16:04:00;65.70;;;54.95;;
22425;SDS011;11380;50.822;15.790;2023-06-05T16:09:07;65.93;;;54.63;;
22425;SDS011;11380;50.822;15.790;2023-06-05T16:14:14;73.18;;;55.44;;
22425;SDS011;11380;50.822;15.790;2023-06-05T16:19:21;77.23;;;55.33;;
22425;SDS011;11380;50.822;15.790;2023-06-05T16:24:28;65.90;;;55.00;;
22425;SDS011;11380;50.822;15.790;2023-06-05T16:29:37;67.20;;;55.17;;
22425;SDS011;11380;50.822;15.790;2023-06-05T16:34:44;72.73;;;55.60;;
22425;SDS011;11380;50.822;15.790;2023-06-05T16:39:52;71.55;;;54.63;;
22425;SDS011;11380;50.822;15.790;2023-06-05T16:45:00;68.20;;;55.27;;
22425;SDS011;11380;50.822;15.790;2023-06-05T16:50:07;71.90;;;54.90;;
22425;SDS011;11380;50.822;15.790;2023-06-05T16:55:14;65.32;;;54.32;;
22425;SDS011;11380;50.822;15.790;2023-06-05T17:00:21;64.90;;;54.70;;
22425;SDS011;11380;50.822;15.790;2023-06-05T17:05:29;65.07;;;54.97;;
22425;SDS011;11380;50.822;15.790;2023-06-05T17:10:37;64.22;;;54.27;;
22425;SDS011;11380;50.822;15.790;2023-06-05T17:15:45;64.42;;;54.93;;
22425;SDS011;11380;50.822;15.790;2023-06-05T17:20:53;68.67;;;55.37;;
22425;SDS011;11380;50.822;15.790;2023-06-05T17:26:00;66.23;;;54.50;;
22425;SDS011;11380;50.822;15.790;2023-06-05T17:31:08;64.23;;;54.57;;
22425;SDS011;11380;50.822;15.790;2023-06-05T17:36:15;63.45;;;54.50;;
22425;SDS011;11380;50.822;15.790;2023-06-05T17:41:23;64.00;;;54.40;;
22425;SDS011;11380;50.822;15.790;2023-06-05T17:46:30;68.23;;;55.77;;
22425;SDS011;11380;50.822;15.790;2023-06-05T17:51:38;64.97;;;55.47;;
22425;SDS011;11380;50.822;15.790;2023-06-05T17:56:46;64.87;;;55.03;;
22425;SDS011;11380;50.822;15.790;2023-06-05T18:01:53;63.53;;;54.53;;
22425;SDS011;11380;50.822;15.790;2023-06-05T18:07:02;65.13;;;54.93;;
22425;SDS011;11380;50.822;15.790;2023-06-05T18:12:11;68.43;;;54.83;;
22425;SDS011;11380;50.822;15.790;2023-06-05T18:17:18;65.40;;;55.00;;
22425;SDS011;11380;50.822;15.790;2023-06-05T18:22:26;65.17;;;55.60;;
22425;SDS011;11380;50.822;15.790;2023-06-05T18:27:34;65.37;;;55.50;;
22425;SDS011;11380;50.822;15.790;2023-06-05T18:32:44;66.30;;;55.60;;
22425;SDS011;11380;50.822;15.790;2023-06-05T18:37:54;65.13;;;55.20;;
22425;SDS011;11380;50.822;15.790;2023-06-05T18:43:02;65.80;;;55.63;;
22425;SDS011;11380;50.822;15.790;2023-06-05T18:48:11;66.20;;;55.20;;
22425;SDS011;11380;50.822;15.790;2023-06-05T18:53:22;65.67;;;55.77;;
22425;SDS011;11380;50.822;15.790;2023-06-05T18:58:29;64.15;;;55.15;;
22425;SDS011;11380;50.822;15.790;2023-06-05T19:03:41;64.92;;;55.08;;
22425;SDS011;11380;50.822;15.790;2023-06-05T19:08:52;64.30;;;55.12;;
22425;SDS011;11380;50.822;15.790;2023-06-05T19:14:00;67.07;;;55.83;;
22425;SDS011;11380;50.822;15.790;2023-06-05T19:19:07;66.13;;;56.03;;
22425;SDS011;11380;50.822;15.790;2023-06-05T19:24:15;67.17;;;55.80;;
22425;SDS011;11380;50.822;15.790;2023-06-05T19:29:23;65.12;;;56.08;;
22425;SDS011;11380;50.822;15.790;2023-06-05T19:34:30;65.70;;;56.17;;
22425;SDS011;11380;50.822;15.790;2023-06-05T19:39:38;65.50;;;56.15;;
22425;SDS011;11380;50.822;15.790;2023-06-05T19:44:48;70.07;;;56.20;;
22425;SDS011;11380;50.822;15.790;2023-06-05T19:49:57;68.40;;;56.90;;
22425;SDS011;11380;50.822;15.790;2023-06-05T19:55:06;65.33;;;55.30;;
22425;SDS011;11380;50.822;15.790;2023-06-05T20:00:16;64.47;;;55.20;;
22425;SDS011;11380;50.822;15.790;2023-06-05T20:05:28;64.12;;;55.10;;
22425;SDS011;11380;50.822;15.790;2023-06-05T20:10:37;63.57;;;54.60;;
22425;SDS011;11380;50.822;15.790;2023-06-05T20:16:01;67.03;;;55.15;;
22425;SDS011;11380;50.822;15.790;2023-06-05T20:21:09;63.17;;;54.30;;
22425;SDS011;11380;50.822;15.790;2023-06-05T20:26:16;66.20;;;54.33;;
22425;SDS011;11380;50.822;15.790;2023-06-05T20:31:25;63.78;;;54.15;;
22425;SDS011;11380;50.822;15.790;2023-06-05T20:36:33;63.70;;;54.10;;
22425;SDS011;11380;50.822;15.790;2023-06-05T20:41:45;62.20;;;54.33;;
22425;SDS011;11380;50.822;15.790;2023-06-05T20:46:57;67.13;;;54.30;;
22425;SDS011;11380;50.822;15.790;2023-06-05T20:52:04;62.67;;;54.60;;
22425;SDS011;11380;50.822;15.790;2023-06-05T20:57:14;61.93;;;53.97;;
22425;SDS011;11380;50.822;15.790;2023-06-05T21:02:21;62.57;;;54.30;;
22425;SDS011;11380;50.822;15.790;2023-06-05T21:07:29;65.25;;;55.33;;
22425;SDS011;11380;50.822;15.790;2023-06-05T21:12:36;62.27;;;54.43;;
22425;SDS011;11380;50.822;15.790;2023-06-05T21:17:44;62.27;;;53.80;;
22425;SDS011;11380;50.822;15.790;2023-06-05T21:22:52;64.43;;;54.53;;
22425;SDS011;11380;50.822;15.790;2023-06-05T21:27:59;61.03;;;53.80;;
22425;SDS011;11380;50.822;15.790;2023-06-05T21:33:06;66.27;;;54.03;;
22425;SDS011;11380;50.822;15.790;2023-06-05T21:38:13;60.83;;;53.83;;
22425;SDS011;11380;50.822;15.790;2023-06-05T21:43:20;60.98;;;54.27;;
22425;SDS011;11380;50.822;15.790;2023-06-05T21:48:28;63.37;;;54.40;;
22425;SDS011;11380;50.822;15.790;2023-06-05T21:53:35;60.97;;;54.10;;
22425;SDS011;11380;50.822;15.790;2023-06-05T21:58:43;60.17;;;53.57;;
22425;SDS011;11380;50.822;15.790;2023-06-05T22:03:49;60.97;;;54.07;;
22425;SDS011;11380;50.822;15.790;2023-06-05T22:08:56;61.77;;;53.27;;
22425;SDS011;11380;50.822;15.790;2023-06-05T22:14:05;60.40;;;53.73;;
22425;SDS011;11380;50.822;15.790;2023-06-05T22:19:13;61.17;;;54.10;;
22425;SDS011;11380;50.822;15.790;2023-06-05T22:24:22;60.52;;;53.58;;
22425;SDS011;11380;50.822;15.790;2023-06-05T22:29:31;60.73;;;53.80;;
22425;SDS011;11380;50.822;15.790;2023-06-05T22:34:38;62.43;;;54.50;;
22425;SDS011;11380;50.822;15.790;2023-06-05T22:39:45;60.07;;;53.33;;
22425;SDS011;11380;50.822;15.790;2023-06-05T22:44:51;64.00;;;54.33;;
22425;SDS011;11380;50.822;15.790;2023-06-05T22:50:01;62.40;;;54.23;;
22425;SDS011;11380;50.822;15.790;2023-06-05T22:55:11;59.90;;;53.30;;
22425;SDS011;11380;50.822;15.790;2023-06-05T23:00:20;63.23;;;54.60;;
22425;SDS011;11380;50.822;15.790;2023-06-05T23:05:27;61.18;;;53.73;;
22425;SDS011;11380;50.822;15.790;2023-06-05T23:10:35;59.87;;;53.30;;
22425;SDS011;11380;50.822;15.790;2023-06-05T23:15:42;62.73;;;54.73;;
22425;SDS011;11380;50.822;15.790;2023-06-05T23:20:49;62.27;;;53.80;;
22425;SDS011;11380;50.822;15.790;2023-06-05T23:25:56;60.43;;;53.77;;
22425;SDS011;11380;50.822;15.790;2023-06-05T23:31:03;60.23;;;53.60;;
22425;SDS011;11380;50.822;15.790;2023-06-05T23:36:12;61.37;;;53.80;;
22425;SDS011;11380;50.822;15.790;2023-06-05T23:41:19;60.75;;;54.10;;
22425;SDS011;11380;50.822;15.790;2023-06-05T23:46:27;61.45;;;54.33;;
22425;SDS011;11380;50.822;15.790;2023-06-05T23:51:35;65.83;;;54.53;;
